sensor_id;sensor_type;location;lat;lon;timestamp;P1;durP1;ratioP1;P2;durP2;ratioP2
82722;SDS011;72450;42.008;21.356;2024-02-26T00:00:57;32.63;;;19.92;;
82722;SDS011;72450;42.008;21.356;2024-02-26T00:03:23;37.50;;;22.63;;
82722;SDS011;72450;42.008;21.356;2024-02-26T00:05:49;41.38;;;22.83;;
82722;SDS011;72450;42.008;21.356;2024-02-26T00:08:15;37.58;;;21.08;;
82722;SDS011;72450;42.008;21.356;2024-02-26T00:10:41;32.78;;;18.35;;
82722;SDS011;72450;42.008;21.356;2024-02-26T00:13:07;31.35;;;18.98;;
82722;SDS011;72450;42.008;21.356;2024-02-26T00:15:33;37.03;;;19.50;;
82722;SDS011;72450;42.008;21.356;2024-02-26T00:18:00;30.13;;;20.02;;
82722;SDS011;72450;42.008;21.356;2024-02-26T00:20:26;35.78;;;20.45;;
82722;SDS011;72450;42.008;21.356;2024-02-26T00:22:52;29.00;;;17.92;;
82722;SDS011;72450;42.008;21.356;2024-02-26T00:25:19;36.92;;;19.55;;
82722;SDS011;72450;42.008;21.356;2024-02-26T00:27:45;28.77;;;19.17;;
82722;SDS011;72450;42.008;21.356;2024-02-26T00:30:11;29.30;;;18.15;;
82722;SDS011;72450;42.008;21.356;2024-02-26T00:32:37;33.83;;;19.48;;
82722;SDS011;72450;42.008;21.356;2024-02-26T00:35:03;32.20;;;18.15;;
82722;SDS011;72450;42.008;21.356;2024-02-26T00:37:29;33.67;;;18.30;;
82722;SDS011;72450;42.008;21.356;2024-02-26T00:39:55;32.72;;;20.98;;
82722;SDS011;72450;42.008;21.356;2024-02-26T00:42:21;37.08;;;21.20;;
82722;SDS011;72450;42.008;21.356;2024-02-26T00:44:48;39.92;;;21.73;;
82722;SDS011;72450;42.008;21.356;2024-02-26T00:47:14;36.17;;;20.90;;
82722;SDS011;72450;42.008;21.356;2024-02-26T00:49:40;37.85;;;22.05;;
82722;SDS011;72450;42.008;21.356;2024-02-26T00:52:06;37.22;;;20.42;;
82722;SDS011;72450;42.008;21.356;2024-02-26T00:54:32;37.92;;;21.08;;
82722;SDS011;72450;42.008;21.356;2024-02-26T00:56:58;39.63;;;20.60;;
82722;SDS011;72450;42.008;21.356;2024-02-26T00:59:24;34.83;;;18.13;;
82722;SDS011;72450;42.008;21.356;2024-02-26T01:01:50;33.95;;;18.58;;
82722;SDS011;72450;42.008;21.356;2024-02-26T01:04:16;29.55;;;17.58;;
82722;SDS011;72450;42.008;21.356;2024-02-26T01:06:42;31.08;;;16.63;;
82722;SDS011;72450;42.008;21.356;2024-02-26T01:09:08;31.42;;;17.58;;
82722;SDS011;72450;42.008;21.356;2024-02-26T01:11:34;29.52;;;18.73;;
82722;SDS011;72450;42.008;21.356;2024-02-26T01:14:00;30.65;;;18.92;;
82722;SDS011;72450;42.008;21.356;2024-02-26T01:16:27;30.92;;;17.50;;
82722;SDS011;72450;42.008;21.356;2024-02-26T01:21:20;28.88;;;18.35;;
82722;SDS011;72450;42.008;21.356;2024-02-26T01:23:46;34.92;;;20.33;;
82722;SDS011;72450;42.008;21.356;2024-02-26T01:26:12;40.78;;;20.63;;
82722;SDS011;72450;42.008;21.356;2024-02-26T01:28:38;30.90;;;17.63;;
82722;SDS011;72450;42.008;21.356;2024-02-26T01:31:04;34.92;;;18.95;;
82722;SDS011;72450;42.008;21.356;2024-02-26T01:33:32;35.33;;;18.48;;
82722;SDS011;72450;42.008;21.356;2024-02-26T01:35:58;34.10;;;17.35;;
82722;SDS011;72450;42.008;21.356;2024-02-26T01:38:25;27.88;;;18.27;;
82722;SDS011;72450;42.008;21.356;2024-02-26T01:40:52;29.70;;;17.50;;
82722;SDS011;72450;42.008;21.356;2024-02-26T01:43:18;29.88;;;16.88;;
82722;SDS011;72450;42.008;21.356;2024-02-26T01:45:44;31.60;;;17.17;;
82722;SDS011;72450;42.008;21.356;2024-02-26T01:48:10;31.77;;;17.63;;
82722;SDS011;72450;42.008;21.356;2024-02-26T01:50:37;30.88;;;15.95;;
82722;SDS011;72450;42.008;21.356;2024-02-26T01:53:03;30.23;;;17.58;;
82722;SDS011;72450;42.008;21.356;2024-02-26T01:55:29;34.17;;;18.42;;
82722;SDS011;72450;42.008;21.356;2024-02-26T01:57:55;30.73;;;18.08;;
82722;SDS011;72450;42.008;21.356;2024-02-26T02:00:22;33.90;;;19.17;;
82722;SDS011;72450;42.008;21.356;2024-02-26T02:02:49;27.67;;;16.33;;
82722;SDS011;72450;42.008;21.356;2024-02-26T02:05:16;27.00;;;15.98;;
82722;SDS011;72450;42.008;21.356;2024-02-26T02:07:43;28.95;;;18.55;;
82722;SDS011;72450;42.008;21.356;2024-02-26T02:10:09;30.13;;;18.48;;
82722;SDS011;72450;42.008;21.356;2024-02-26T02:12:36;28.38;;;16.92;;
82722;SDS011;72450;42.008;21.356;2024-02-26T02:15:05;27.20;;;17.20;;
82722;SDS011;72450;42.008;21.356;2024-02-26T02:17:31;31.95;;;17.67;;
82722;SDS011;72450;42.008;21.356;2024-02-26T02:19:57;24.77;;;15.25;;
82722;SDS011;72450;42.008;21.356;2024-02-26T02:22:23;29.27;;;17.13;;
82722;SDS011;72450;42.008;21.356;2024-02-26T02:24:51;29.13;;;16.63;;
82722;SDS011;72450;42.008;21.356;2024-02-26T02:27:18;28.75;;;15.10;;
82722;SDS011;72450;42.008;21.356;2024-02-26T02:29:44;28.08;;;16.40;;
82722;SDS011;72450;42.008;21.356;2024-02-26T02:32:11;29.48;;;16.65;;
82722;SDS011;72450;42.008;21.356;2024-02-26T02:34:37;23.70;;;15.07;;
82722;SDS011;72450;42.008;21.356;2024-02-26T02:37:03;23.73;;;15.43;;
82722;SDS011;72450;42.008;21.356;2024-02-26T02:39:29;25.83;;;15.43;;
82722;SDS011;72450;42.008;21.356;2024-02-26T02:41:55;25.67;;;14.95;;
82722;SDS011;72450;42.008;21.356;2024-02-26T02:44:21;26.55;;;16.73;;
82722;SDS011;72450;42.008;21.356;2024-02-26T02:46:47;25.05;;;16.83;;
82722;SDS011;72450;42.008;21.356;2024-02-26T02:51:41;23.15;;;14.02;;
82722;SDS011;72450;42.008;21.356;2024-02-26T02:54:07;24.33;;;14.48;;
82722;SDS011;72450;42.008;21.356;2024-02-26T02:56:34;27.70;;;14.98;;
82722;SDS011;72450;42.008;21.356;2024-02-26T02:59:00;23.42;;;15.23;;
82722;SDS011;72450;42.008;21.356;2024-02-26T03:01:27;23.75;;;14.52;;
82722;SDS011;72450;42.008;21.356;2024-02-26T03:03:53;25.30;;;14.95;;
82722;SDS011;72450;42.008;21.356;2024-02-26T03:06:19;25.08;;;15.40;;
82722;SDS011;72450;42.008;21.356;2024-02-26T03:08:46;27.80;;;15.68;;
82722;SDS011;72450;42.008;21.356;2024-02-26T03:11:13;21.98;;;13.98;;
82722;SDS011;72450;42.008;21.356;2024-02-26T03:13:40;30.77;;;14.88;;
82722;SDS011;72450;42.008;21.356;2024-02-26T03:16:06;28.40;;;16.75;;
82722;SDS011;72450;42.008;21.356;2024-02-26T03:18:32;27.45;;;15.95;;
82722;SDS011;72450;42.008;21.356;2024-02-26T03:20:58;26.65;;;16.40;;
82722;SDS011;72450;42.008;21.356;2024-02-26T03:23:24;25.48;;;17.05;;
82722;SDS011;72450;42.008;21.356;2024-02-26T03:25:50;27.15;;;15.82;;
82722;SDS011;72450;42.008;21.356;2024-02-26T03:28:17;27.27;;;14.93;;
82722;SDS011;72450;42.008;21.356;2024-02-26T03:30:43;25.15;;;15.32;;
82722;SDS011;72450;42.008;21.356;2024-02-26T03:33:09;24.15;;;13.60;;
82722;SDS011;72450;42.008;21.356;2024-02-26T03:35:35;24.65;;;14.82;;
82722;SDS011;72450;42.008;21.356;2024-02-26T03:38:01;26.02;;;14.50;;
82722;SDS011;72450;42.008;21.356;2024-02-26T03:40:27;27.67;;;15.20;;
82722;SDS011;72450;42.008;21.356;2024-02-26T03:42:54;26.25;;;16.92;;
82722;SDS011;72450;42.008;21.356;2024-02-26T03:45:22;28.48;;;14.68;;
82722;SDS011;72450;42.008;21.356;2024-02-26T03:47:48;23.40;;;14.13;;
82722;SDS011;72450;42.008;21.356;2024-02-26T03:50:14;25.55;;;15.43;;
82722;SDS011;72450;42.008;21.356;2024-02-26T03:52:41;28.25;;;14.82;;
82722;SDS011;72450;42.008;21.356;2024-02-26T03:55:07;21.92;;;13.32;;
82722;SDS011;72450;42.008;21.356;2024-02-26T03:57:35;26.70;;;14.85;;
82722;SDS011;72450;42.008;21.356;2024-02-26T04:00:02;20.35;;;12.80;;
82722;SDS011;72450;42.008;21.356;2024-02-26T04:02:28;22.40;;;13.13;;
82722;SDS011;72450;42.008;21.356;2024-02-26T04:04:54;21.10;;;14.13;;
82722;SDS011;72450;42.008;21.356;2024-02-26T04:07:20;25.85;;;15.18;;
82722;SDS011;72450;42.008;21.356;2024-02-26T04:09:46;22.88;;;14.13;;
82722;SDS011;72450;42.008;21.356;2024-02-26T04:12:12;27.27;;;15.98;;
82722;SDS011;72450;42.008;21.356;2024-02-26T04:14:39;25.45;;;14.68;;
82722;SDS011;72450;42.008;21.356;2024-02-26T04:17:05;26.52;;;15.45;;
82722;SDS011;72450;42.008;21.356;2024-02-26T04:19:31;29.98;;;16.52;;
82722;SDS011;72450;42.008;21.356;2024-02-26T04:21:57;28.65;;;15.93;;
82722;SDS011;72450;42.008;21.356;2024-02-26T04:24:23;28.23;;;16.75;;
82722;SDS011;72450;42.008;21.356;2024-02-26T04:26:49;32.25;;;16.60;;
82722;SDS011;72450;42.008;21.356;2024-02-26T04:29:16;28.65;;;15.35;;
82722;SDS011;72450;42.008;21.356;2024-02-26T04:31:42;27.92;;;16.67;;
82722;SDS011;72450;42.008;21.356;2024-02-26T04:34:08;36.70;;;21.05;;
82722;SDS011;72450;42.008;21.356;2024-02-26T04:36:34;34.90;;;17.98;;
82722;SDS011;72450;42.008;21.356;2024-02-26T04:39:00;31.48;;;18.08;;
82722;SDS011;72450;42.008;21.356;2024-02-26T04:41:26;28.13;;;16.85;;
82722;SDS011;72450;42.008;21.356;2024-02-26T04:43:52;28.40;;;15.82;;
82722;SDS011;72450;42.008;21.356;2024-02-26T04:46:18;29.35;;;16.70;;
82722;SDS011;72450;42.008;21.356;2024-02-26T04:48:46;25.48;;;18.17;;
82722;SDS011;72450;42.008;21.356;2024-02-26T04:51:13;25.00;;;16.20;;
82722;SDS011;72450;42.008;21.356;2024-02-26T04:53:39;26.42;;;15.50;;
82722;SDS011;72450;42.008;21.356;2024-02-26T04:56:05;31.63;;;15.38;;
82722;SDS011;72450;42.008;21.356;2024-02-26T04:58:31;28.73;;;16.73;;
82722;SDS011;72450;42.008;21.356;2024-02-26T05:00:57;28.50;;;18.30;;
82722;SDS011;72450;42.008;21.356;2024-02-26T05:03:23;28.48;;;18.27;;
82722;SDS011;72450;42.008;21.356;2024-02-26T05:05:50;32.40;;;17.27;;
82722;SDS011;72450;42.008;21.356;2024-02-26T05:08:16;28.63;;;17.52;;
82722;SDS011;72450;42.008;21.356;2024-02-26T05:10:42;31.25;;;18.00;;
82722;SDS011;72450;42.008;21.356;2024-02-26T05:13:08;25.45;;;17.63;;
82722;SDS011;72450;42.008;21.356;2024-02-26T05:15:35;25.98;;;16.52;;
82722;SDS011;72450;42.008;21.356;2024-02-26T05:18:01;31.42;;;16.67;;
82722;SDS011;72450;42.008;21.356;2024-02-26T05:20:27;30.77;;;16.40;;
82722;SDS011;72450;42.008;21.356;2024-02-26T05:22:54;34.55;;;18.05;;
82722;SDS011;72450;42.008;21.356;2024-02-26T05:25:20;29.13;;;16.52;;
82722;SDS011;72450;42.008;21.356;2024-02-26T05:27:46;29.45;;;16.33;;
82722;SDS011;72450;42.008;21.356;2024-02-26T05:30:12;28.95;;;18.15;;
82722;SDS011;72450;42.008;21.356;2024-02-26T05:32:38;29.92;;;17.10;;
82722;SDS011;72450;42.008;21.356;2024-02-26T05:35:05;44.65;;;23.40;;
82722;SDS011;72450;42.008;21.356;2024-02-26T05:37:31;39.08;;;22.85;;
82722;SDS011;72450;42.008;21.356;2024-02-26T05:39:57;35.72;;;21.08;;
82722;SDS011;72450;42.008;21.356;2024-02-26T05:42:23;32.67;;;20.20;;
82722;SDS011;72450;42.008;21.356;2024-02-26T05:44:49;31.98;;;17.92;;
82722;SDS011;72450;42.008;21.356;2024-02-26T05:47:15;35.45;;;22.02;;
82722;SDS011;72450;42.008;21.356;2024-02-26T05:49:42;37.05;;;20.30;;
82722;SDS011;72450;42.008;21.356;2024-02-26T05:52:08;37.88;;;21.70;;
82722;SDS011;72450;42.008;21.356;2024-02-26T05:54:34;32.78;;;20.42;;
82722;SDS011;72450;42.008;21.356;2024-02-26T05:57:01;33.80;;;18.25;;
82722;SDS011;72450;42.008;21.356;2024-02-26T05:59:27;30.63;;;17.83;;
82722;SDS011;72450;42.008;21.356;2024-02-26T06:01:53;33.25;;;19.80;;
82722;SDS011;72450;42.008;21.356;2024-02-26T06:04:19;34.35;;;20.08;;
82722;SDS011;72450;42.008;21.356;2024-02-26T06:06:45;35.92;;;20.27;;
82722;SDS011;72450;42.008;21.356;2024-02-26T06:09:11;40.00;;;23.00;;
82722;SDS011;72450;42.008;21.356;2024-02-26T06:11:37;45.45;;;26.38;;
82722;SDS011;72450;42.008;21.356;2024-02-26T06:14:03;42.35;;;24.08;;
82722;SDS011;72450;42.008;21.356;2024-02-26T06:16:30;43.38;;;24.95;;
82722;SDS011;72450;42.008;21.356;2024-02-26T06:18:56;42.28;;;22.65;;
82722;SDS011;72450;42.008;21.356;2024-02-26T06:21:23;36.05;;;20.95;;
82722;SDS011;72450;42.008;21.356;2024-02-26T06:23:49;41.90;;;22.58;;
82722;SDS011;72450;42.008;21.356;2024-02-26T06:26:15;50.53;;;29.55;;
82722;SDS011;72450;42.008;21.356;2024-02-26T06:28:41;43.00;;;26.20;;
82722;SDS011;72450;42.008;21.356;2024-02-26T06:31:08;39.58;;;21.58;;
82722;SDS011;72450;42.008;21.356;2024-02-26T06:33:34;39.20;;;20.30;;
82722;SDS011;72450;42.008;21.356;2024-02-26T06:36:00;30.90;;;19.08;;
82722;SDS011;72450;42.008;21.356;2024-02-26T06:38:26;24.85;;;13.77;;
82722;SDS011;72450;42.008;21.356;2024-02-26T06:40:52;28.73;;;16.35;;
82722;SDS011;72450;42.008;21.356;2024-02-26T06:43:18;28.60;;;17.20;;
82722;SDS011;72450;42.008;21.356;2024-02-26T06:45:45;32.67;;;16.45;;
82722;SDS011;72450;42.008;21.356;2024-02-26T06:48:11;33.30;;;18.33;;
82722;SDS011;72450;42.008;21.356;2024-02-26T06:50:37;33.28;;;18.90;;
82722;SDS011;72450;42.008;21.356;2024-02-26T06:53:03;30.23;;;17.48;;
82722;SDS011;72450;42.008;21.356;2024-02-26T06:55:29;24.45;;;14.90;;
82722;SDS011;72450;42.008;21.356;2024-02-26T06:57:55;25.30;;;14.65;;
82722;SDS011;72450;42.008;21.356;2024-02-26T07:00:21;25.63;;;14.95;;
82722;SDS011;72450;42.008;21.356;2024-02-26T07:02:51;23.33;;;14.57;;
82722;SDS011;72450;42.008;21.356;2024-02-26T07:05:17;26.90;;;15.48;;
82722;SDS011;72450;42.008;21.356;2024-02-26T07:07:43;23.80;;;15.38;;
82722;SDS011;72450;42.008;21.356;2024-02-26T07:10:09;29.38;;;15.55;;
82722;SDS011;72450;42.008;21.356;2024-02-26T07:12:37;27.92;;;16.83;;
82722;SDS011;72450;42.008;21.356;2024-02-26T07:15:03;25.40;;;14.82;;
82722;SDS011;72450;42.008;21.356;2024-02-26T07:17:30;24.13;;;14.98;;
82722;SDS011;72450;42.008;21.356;2024-02-26T07:19:56;35.03;;;22.40;;
82722;SDS011;72450;42.008;21.356;2024-02-26T07:22:22;38.42;;;26.85;;
82722;SDS011;72450;42.008;21.356;2024-02-26T07:24:49;33.85;;;21.63;;
82722;SDS011;72450;42.008;21.356;2024-02-26T07:27:15;29.67;;;18.67;;
82722;SDS011;72450;42.008;21.356;2024-02-26T07:29:42;26.35;;;17.55;;
82722;SDS011;72450;42.008;21.356;2024-02-26T07:32:08;29.77;;;17.60;;
82722;SDS011;72450;42.008;21.356;2024-02-26T07:34:35;28.10;;;15.88;;
82722;SDS011;72450;42.008;21.356;2024-02-26T07:37:04;29.30;;;17.10;;
82722;SDS011;72450;42.008;21.356;2024-02-26T07:39:31;30.27;;;18.35;;
82722;SDS011;72450;42.008;21.356;2024-02-26T07:41:57;28.08;;;17.13;;
82722;SDS011;72450;42.008;21.356;2024-02-26T07:44:24;27.77;;;17.98;;
82722;SDS011;72450;42.008;21.356;2024-02-26T07:46:50;28.33;;;16.73;;
82722;SDS011;72450;42.008;21.356;2024-02-26T07:49:16;32.40;;;19.50;;
82722;SDS011;72450;42.008;21.356;2024-02-26T07:51:42;25.52;;;16.30;;
82722;SDS011;72450;42.008;21.356;2024-02-26T07:54:08;30.98;;;18.58;;
82722;SDS011;72450;42.008;21.356;2024-02-26T07:56:34;28.60;;;18.05;;
82722;SDS011;72450;42.008;21.356;2024-02-26T07:59:00;31.42;;;16.45;;
82722;SDS011;72450;42.008;21.356;2024-02-26T08:01:26;26.85;;;16.20;;
82722;SDS011;72450;42.008;21.356;2024-02-26T08:03:55;24.42;;;16.05;;
82722;SDS011;72450;42.008;21.356;2024-02-26T08:06:21;27.08;;;15.40;;
82722;SDS011;72450;42.008;21.356;2024-02-26T08:08:48;24.65;;;16.42;;
82722;SDS011;72450;42.008;21.356;2024-02-26T08:11:14;27.15;;;16.80;;
82722;SDS011;72450;42.008;21.356;2024-02-26T08:13:41;26.52;;;15.68;;
82722;SDS011;72450;42.008;21.356;2024-02-26T08:16:07;27.13;;;14.55;;
82722;SDS011;72450;42.008;21.356;2024-02-26T08:18:34;28.63;;;16.08;;
82722;SDS011;72450;42.008;21.356;2024-02-26T08:21:00;25.33;;;16.30;;
82722;SDS011;72450;42.008;21.356;2024-02-26T08:23:26;20.02;;;12.88;;
82722;SDS011;72450;42.008;21.356;2024-02-26T08:25:52;20.98;;;12.32;;
82722;SDS011;72450;42.008;21.356;2024-02-26T08:28:18;21.77;;;13.85;;
82722;SDS011;72450;42.008;21.356;2024-02-26T08:30:44;20.58;;;11.95;;
82722;SDS011;72450;42.008;21.356;2024-02-26T08:33:10;22.33;;;13.63;;
82722;SDS011;72450;42.008;21.356;2024-02-26T08:35:38;15.15;;;9.35;;
82722;SDS011;72450;42.008;21.356;2024-02-26T08:38:04;20.40;;;11.13;;
82722;SDS011;72450;42.008;21.356;2024-02-26T08:40:30;19.80;;;10.65;;
82722;SDS011;72450;42.008;21.356;2024-02-26T08:42:56;12.02;;;7.82;;
82722;SDS011;72450;42.008;21.356;2024-02-26T08:45:22;11.98;;;8.20;;
82722;SDS011;72450;42.008;21.356;2024-02-26T08:47:49;15.98;;;9.10;;
82722;SDS011;72450;42.008;21.356;2024-02-26T08:50:15;12.32;;;8.95;;
82722;SDS011;72450;42.008;21.356;2024-02-26T08:52:41;16.83;;;10.98;;
82722;SDS011;72450;42.008;21.356;2024-02-26T08:55:07;16.42;;;10.32;;
82722;SDS011;72450;42.008;21.356;2024-02-26T08:57:34;17.75;;;11.40;;
82722;SDS011;72450;42.008;21.356;2024-02-26T09:00:00;16.67;;;9.93;;
82722;SDS011;72450;42.008;21.356;2024-02-26T09:02:27;14.70;;;11.18;;
82722;SDS011;72450;42.008;21.356;2024-02-26T09:04:53;13.65;;;8.00;;
82722;SDS011;72450;42.008;21.356;2024-02-26T09:07:20;10.57;;;7.50;;
82722;SDS011;72450;42.008;21.356;2024-02-26T09:09:46;12.05;;;8.52;;
82722;SDS011;72450;42.008;21.356;2024-02-26T09:12:12;12.13;;;7.82;;
82722;SDS011;72450;42.008;21.356;2024-02-26T09:14:38;13.85;;;8.15;;
82722;SDS011;72450;42.008;21.356;2024-02-26T09:17:05;16.77;;;7.53;;
82722;SDS011;72450;42.008;21.356;2024-02-26T09:19:32;10.30;;;6.07;;
82722;SDS011;72450;42.008;21.356;2024-02-26T09:21:58;11.50;;;6.70;;
82722;SDS011;72450;42.008;21.356;2024-02-26T09:24:25;12.55;;;6.50;;
82722;SDS011;72450;42.008;21.356;2024-02-26T09:29:18;8.02;;;5.63;;
82722;SDS011;72450;42.008;21.356;2024-02-26T09:31:44;9.63;;;5.90;;
82722;SDS011;72450;42.008;21.356;2024-02-26T09:34:12;14.98;;;7.10;;
82722;SDS011;72450;42.008;21.356;2024-02-26T09:36:38;14.98;;;6.78;;
82722;SDS011;72450;42.008;21.356;2024-02-26T09:39:04;10.75;;;6.80;;
82722;SDS011;72450;42.008;21.356;2024-02-26T09:41:32;14.82;;;8.50;;
82722;SDS011;72450;42.008;21.356;2024-02-26T09:43:58;13.98;;;8.20;;
82722;SDS011;72450;42.008;21.356;2024-02-26T09:46:25;12.13;;;8.57;;
82722;SDS011;72450;42.008;21.356;2024-02-26T09:48:51;11.88;;;7.55;;
82722;SDS011;72450;42.008;21.356;2024-02-26T09:51:17;13.82;;;7.70;;
82722;SDS011;72450;42.008;21.356;2024-02-26T09:53:44;13.27;;;8.40;;
82722;SDS011;72450;42.008;21.356;2024-02-26T09:56:12;13.02;;;8.07;;
82722;SDS011;72450;42.008;21.356;2024-02-26T09:58:39;13.82;;;9.50;;
82722;SDS011;72450;42.008;21.356;2024-02-26T10:01:06;18.90;;;9.98;;
82722;SDS011;72450;42.008;21.356;2024-02-26T10:03:38;14.48;;;8.88;;
82722;SDS011;72450;42.008;21.356;2024-02-26T10:06:06;11.98;;;7.80;;
82722;SDS011;72450;42.008;21.356;2024-02-26T10:08:33;12.82;;;8.80;;
82722;SDS011;72450;42.008;21.356;2024-02-26T10:11:00;14.65;;;9.63;;
82722;SDS011;72450;42.008;21.356;2024-02-26T10:13:26;18.35;;;8.88;;
82722;SDS011;72450;42.008;21.356;2024-02-26T10:15:52;15.40;;;8.75;;
82722;SDS011;72450;42.008;21.356;2024-02-26T10:18:18;14.43;;;9.60;;
82722;SDS011;72450;42.008;21.356;2024-02-26T10:21:00;15.63;;;8.65;;
82722;SDS011;72450;42.008;21.356;2024-02-26T10:23:26;13.95;;;8.75;;
82722;SDS011;72450;42.008;21.356;2024-02-26T10:25:53;15.90;;;8.98;;
82722;SDS011;72450;42.008;21.356;2024-02-26T10:28:20;15.90;;;7.97;;
82722;SDS011;72450;42.008;21.356;2024-02-26T10:30:46;15.73;;;7.35;;
82722;SDS011;72450;42.008;21.356;2024-02-26T10:33:12;14.38;;;8.35;;
82722;SDS011;72450;42.008;21.356;2024-02-26T10:35:39;16.33;;;10.70;;
82722;SDS011;72450;42.008;21.356;2024-02-26T10:38:08;11.48;;;6.60;;
82722;SDS011;72450;42.008;21.356;2024-02-26T10:40:34;13.55;;;6.82;;
82722;SDS011;72450;42.008;21.356;2024-02-26T10:43:00;11.40;;;6.40;;
82722;SDS011;72450;42.008;21.356;2024-02-26T10:47:53;14.63;;;6.53;;
82722;SDS011;72450;42.008;21.356;2024-02-26T10:50:20;13.57;;;7.68;;
82722;SDS011;72450;42.008;21.356;2024-02-26T10:52:46;10.95;;;6.05;;
82722;SDS011;72450;42.008;21.356;2024-02-26T10:55:14;13.60;;;6.15;;
82722;SDS011;72450;42.008;21.356;2024-02-26T10:57:43;12.40;;;6.90;;
82722;SDS011;72450;42.008;21.356;2024-02-26T11:00:10;11.15;;;6.90;;
82722;SDS011;72450;42.008;21.356;2024-02-26T11:02:39;8.95;;;5.25;;
82722;SDS011;72450;42.008;21.356;2024-02-26T11:05:06;9.98;;;5.50;;
82722;SDS011;72450;42.008;21.356;2024-02-26T11:07:35;10.00;;;6.28;;
82722;SDS011;72450;42.008;21.356;2024-02-26T11:10:03;11.20;;;6.10;;
82722;SDS011;72450;42.008;21.356;2024-02-26T11:12:29;8.35;;;5.55;;
82722;SDS011;72450;42.008;21.356;2024-02-26T11:14:56;10.93;;;6.22;;
82722;SDS011;72450;42.008;21.356;2024-02-26T11:17:24;11.60;;;6.60;;
82722;SDS011;72450;42.008;21.356;2024-02-26T11:19:51;12.85;;;7.93;;
82722;SDS011;72450;42.008;21.356;2024-02-26T11:22:18;14.50;;;8.13;;
82722;SDS011;72450;42.008;21.356;2024-02-26T11:24:47;15.95;;;7.75;;
82722;SDS011;72450;42.008;21.356;2024-02-26T11:27:13;11.50;;;7.15;;
82722;SDS011;72450;42.008;21.356;2024-02-26T11:29:43;14.02;;;6.53;;
82722;SDS011;72450;42.008;21.356;2024-02-26T11:32:10;13.20;;;6.93;;
82722;SDS011;72450;42.008;21.356;2024-02-26T11:34:36;11.38;;;6.78;;
82722;SDS011;72450;42.008;21.356;2024-02-26T11:39:32;10.35;;;5.38;;
82722;SDS011;72450;42.008;21.356;2024-02-26T11:42:04;10.25;;;5.72;;
82722;SDS011;72450;42.008;21.356;2024-02-26T11:44:31;8.50;;;5.57;;
82722;SDS011;72450;42.008;21.356;2024-02-26T11:46:57;10.98;;;5.30;;
82722;SDS011;72450;42.008;21.356;2024-02-26T11:51:51;8.23;;;5.22;;
82722;SDS011;72450;42.008;21.356;2024-02-26T11:57:19;9.05;;;4.80;;
82722;SDS011;72450;42.008;21.356;2024-02-26T11:59:46;7.07;;;4.80;;
82722;SDS011;72450;42.008;21.356;2024-02-26T12:02:36;10.30;;;5.30;;
82722;SDS011;72450;42.008;21.356;2024-02-26T12:04:59;8.77;;;5.15;;
82722;SDS011;72450;42.008;21.356;2024-02-26T12:07:25;7.63;;;5.15;;
82722;SDS011;72450;42.008;21.356;2024-02-26T12:09:51;10.25;;;5.53;;
82722;SDS011;72450;42.008;21.356;2024-02-26T12:12:18;8.52;;;4.53;;
82722;SDS011;72450;42.008;21.356;2024-02-26T12:14:51;9.10;;;4.90;;
82722;SDS011;72450;42.008;21.356;2024-02-26T12:17:21;8.80;;;5.07;;
82722;SDS011;72450;42.008;21.356;2024-02-26T12:19:48;9.32;;;5.55;;
82722;SDS011;72450;42.008;21.356;2024-02-26T12:22:14;10.50;;;4.82;;
82722;SDS011;72450;42.008;21.356;2024-02-26T12:24:40;10.57;;;5.90;;
82722;SDS011;72450;42.008;21.356;2024-02-26T12:27:06;9.65;;;4.60;;
82722;SDS011;72450;42.008;21.356;2024-02-26T12:29:32;7.63;;;5.15;;
82722;SDS011;72450;42.008;21.356;2024-02-26T12:31:59;12.82;;;5.07;;
82722;SDS011;72450;42.008;21.356;2024-02-26T12:34:25;8.18;;;4.82;;
82722;SDS011;72450;42.008;21.356;2024-02-26T12:36:51;8.20;;;4.93;;
82722;SDS011;72450;42.008;21.356;2024-02-26T12:39:19;9.85;;;5.35;;
82722;SDS011;72450;42.008;21.356;2024-02-26T12:41:46;10.20;;;5.57;;
82722;SDS011;72450;42.008;21.356;2024-02-26T12:44:15;7.35;;;5.10;;
82722;SDS011;72450;42.008;21.356;2024-02-26T12:46:42;13.57;;;6.78;;
82722;SDS011;72450;42.008;21.356;2024-02-26T12:49:08;9.90;;;5.85;;
82722;SDS011;72450;42.008;21.356;2024-02-26T12:51:34;10.13;;;6.47;;
82722;SDS011;72450;42.008;21.356;2024-02-26T12:54:00;15.15;;;6.47;;
82722;SDS011;72450;42.008;21.356;2024-02-26T12:56:27;8.20;;;4.93;;
82722;SDS011;72450;42.008;21.356;2024-02-26T12:58:53;12.77;;;6.13;;
82722;SDS011;72450;42.008;21.356;2024-02-26T13:01:21;15.85;;;7.07;;
82722;SDS011;72450;42.008;21.356;2024-02-26T13:03:47;14.15;;;7.85;;
82722;SDS011;72450;42.008;21.356;2024-02-26T13:06:14;10.68;;;6.35;;
82722;SDS011;72450;42.008;21.356;2024-02-26T13:08:40;12.90;;;6.55;;
82722;SDS011;72450;42.008;21.356;2024-02-26T13:11:06;10.73;;;5.25;;
82722;SDS011;72450;42.008;21.356;2024-02-26T13:13:33;10.35;;;5.38;;
82722;SDS011;72450;42.008;21.356;2024-02-26T13:16:02;7.30;;;4.70;;
82722;SDS011;72450;42.008;21.356;2024-02-26T13:18:29;13.90;;;5.30;;
82722;SDS011;72450;42.008;21.356;2024-02-26T13:21:06;12.07;;;6.10;;
82722;SDS011;72450;42.008;21.356;2024-02-26T13:23:33;13.65;;;5.95;;
82722;SDS011;72450;42.008;21.356;2024-02-26T13:25:59;13.88;;;5.63;;
82722;SDS011;72450;42.008;21.356;2024-02-26T13:28:25;18.17;;;8.18;;
82722;SDS011;72450;42.008;21.356;2024-02-26T13:30:56;16.27;;;7.85;;
82722;SDS011;72450;42.008;21.356;2024-02-26T13:33:27;12.20;;;5.57;;
82722;SDS011;72450;42.008;21.356;2024-02-26T13:35:54;9.48;;;5.53;;
82722;SDS011;72450;42.008;21.356;2024-02-26T13:40:46;13.48;;;7.88;;
82722;SDS011;72450;42.008;21.356;2024-02-26T13:43:13;18.58;;;8.60;;
82722;SDS011;72450;42.008;21.356;2024-02-26T13:45:41;17.15;;;8.52;;
82722;SDS011;72450;42.008;21.356;2024-02-26T13:48:08;16.05;;;9.57;;
82722;SDS011;72450;42.008;21.356;2024-02-26T13:50:36;22.35;;;11.55;;
82722;SDS011;72450;42.008;21.356;2024-02-26T13:53:02;14.70;;;9.23;;
82722;SDS011;72450;42.008;21.356;2024-02-26T13:55:29;20.65;;;10.00;;
82722;SDS011;72450;42.008;21.356;2024-02-26T13:57:57;14.52;;;8.55;;
82722;SDS011;72450;42.008;21.356;2024-02-26T14:00:23;12.00;;;6.82;;
82722;SDS011;72450;42.008;21.356;2024-02-26T14:02:52;12.65;;;8.98;;
82722;SDS011;72450;42.008;21.356;2024-02-26T14:05:18;16.92;;;11.07;;
82722;SDS011;72450;42.008;21.356;2024-02-26T14:07:45;13.45;;;8.57;;
82722;SDS011;72450;42.008;21.356;2024-02-26T14:10:11;17.85;;;9.23;;
82722;SDS011;72450;42.008;21.356;2024-02-26T14:12:38;19.10;;;11.32;;
82722;SDS011;72450;42.008;21.356;2024-02-26T14:15:05;14.60;;;8.63;;
82722;SDS011;72450;42.008;21.356;2024-02-26T14:17:32;15.30;;;9.90;;
82722;SDS011;72450;42.008;21.356;2024-02-26T14:19:58;18.73;;;10.93;;
82722;SDS011;72450;42.008;21.356;2024-02-26T14:22:24;20.05;;;10.05;;
82722;SDS011;72450;42.008;21.356;2024-02-26T14:24:55;16.48;;;10.38;;
82722;SDS011;72450;42.008;21.356;2024-02-26T14:27:21;13.48;;;9.52;;
82722;SDS011;72450;42.008;21.356;2024-02-26T14:29:48;14.65;;;9.70;;